Time;durP1;ratioP1;P1;durP2;ratioP2;P2;SDS_P1;SDS_P2;PMS_P1;PMS_P2;Temp;Humidity;BMP_temperature;BMP_pressure;BME280_temperature;BME280_humidity;BME280_pressure;Samples;Min_cycle;Max_cycle;Signal;HPM_P1;HPM_P2
2022/05/18 00:01:59;;;;;;;6.70;3.88;;;;;;;;;;5053989;28;20021;-42
2022/05/18 00:04:25;;;;;;;12.02;4.68;;;;;;;;;;5053980;28;20021;-42
2022/05/18 00:06:50;;;;;;;6.10;3.50;;;;;;;;;;5053830;28;20484;-40
2022/05/18 00:09:16;;;;;;;7.53;3.80;;;;;;;;;;5053812;28;20013;-43
2022/05/18 00:11:41;;;;;;;8.80;3.70;;;;;;;;;;5053419;28;20029;-43
2022/05/18 00:14:06;;;;;;;5.28;3.47;;;;;;;;;;5053988;28;20028;-43
2022/05/18 00:16:32;;;;;;;5.97;3.63;;;;;;;;;;5053725;28;20021;-41
2022/05/18 00:18:57;;;;;;;7.38;4.40;;;;;;;;;;5053542;28;20053;-42
2022/05/18 00:21:23;;;;;;;7.50;4.25;;;;;;;;;;5053578;28;20021;-43
2022/05/18 00:23:48;;;;;;;9.63;3.95;;;;;;;;;;5053703;28;20099;-42
2022/05/18 00:26:14;;;;;;;7.82;3.83;;;;;;;;;;5053449;28;20112;-43
2022/05/18 00:28:39;;;;;;;7.35;3.97;;;;;;;;;;5053482;28;20021;-43
2022/05/18 00:31:04;;;;;;;11.60;4.28;;;;;;;;;;5053502;28;20044;-42
2022/05/18 00:33:30;;;;;;;14.45;4.90;;;;;;;;;;5053543;28;20021;-43
2022/05/18 00:35:59;;;;;;;8.55;3.72;;;;;;;;;;5053368;28;20422;-41
2022/05/18 00:38:24;;;;;;;7.93;4.30;;;;;;;;;;5053407;28;20030;-43
2022/05/18 00:40:50;;;;;;;6.28;3.85;;;;;;;;;;5035409;28;20487;-43
2022/05/18 00:43:16;;;;;;;6.05;3.15;;;;;;;;;;5052473;28;20059;-42
2022/05/18 00:45:42;;;;;;;5.47;3.40;;;;;;;;;;5035553;28;20453;-43
2022/05/18 00:48:07;;;;;;;6.55;3.35;;;;;;;;;;5053234;28;20100;-43
2022/05/18 00:50:34;;;;;;;8.13;3.40;;;;;;;;;;5053111;28;20017;-42
2022/05/18 00:52:59;;;;;;;5.78;3.17;;;;;;;;;;5053144;28;20025;-43
2022/05/18 00:55:25;;;;;;;5.30;3.33;;;;;;;;;;5053023;28;20025;-43
2022/05/18 00:57:55;;;;;;;4.65;2.90;;;;;;;;;;5052884;28;20707;-43
2022/05/18 01:00:20;;;;;;;3.65;2.60;;;;;;;;;;5053090;28;20021;-42
2022/05/18 01:02:48;;;;;;;7.15;3.10;;;;;;;;;;5053152;28;20025;-43
2022/05/18 01:05:17;;;;;;;5.53;3.10;;;;;;;;;;5052777;28;20510;-42
2022/05/18 01:07:45;;;;;;;5.40;2.90;;;;;;;;;;5053212;28;20387;-43
2022/05/18 01:10:11;;;;;;;5.90;2.90;;;;;;;;;;5052849;28;20108;-43
2022/05/18 01:12:36;;;;;;;4.35;2.60;;;;;;;;;;5052731;28;20139;-43
2022/05/18 01:15:06;;;;;;;2.83;2.40;;;;;;;;;;5052935;28;20021;-40
2022/05/18 01:17:34;;;;;;;5.50;2.53;;;;;;;;;;5052833;28;20532;-42
2022/05/18 01:20:00;;;;;;;7.43;3.15;;;;;;;;;;5034993;28;20044;-41
2022/05/18 01:22:29;;;;;;;7.47;2.70;;;;;;;;;;5052902;28;20021;-43
2022/05/18 01:25:01;;;;;;;5.93;3.03;;;;;;;;;;5034587;28;20021;-43
2022/05/18 01:27:27;;;;;;;4.45;2.70;;;;;;;;;;5034922;28;20116;-41
2022/05/18 01:29:53;;;;;;;6.15;2.40;;;;;;;;;;5052832;28;20449;-43
2022/05/18 01:32:19;;;;;;;7.38;2.55;;;;;;;;;;5052647;28;20079;-43
2022/05/18 01:34:44;;;;;;;4.50;2.53;;;;;;;;;;5052776;28;20021;-46
2022/05/18 01:37:12;;;;;;;4.85;2.40;;;;;;;;;;5052643;28;20021;-43
2022/05/18 01:39:44;;;;;;;5.30;2.47;;;;;;;;;;5052445;28;20066;-44
2022/05/18 01:42:14;;;;;;;6.90;2.63;;;;;;;;;;5034868;28;20029;-41
2022/05/18 01:44:40;;;;;;;3.55;2.35;;;;;;;;;;5052664;28;20464;-42
2022/05/18 01:47:06;;;;;;;5.50;2.30;;;;;;;;;;5052524;28;20028;-43
2022/05/18 01:49:32;;;;;;;6.72;2.20;;;;;;;;;;5052493;28;20032;-42
2022/05/18 01:51:58;;;;;;;6.03;2.35;;;;;;;;;;5034372;28;20043;-43
2022/05/18 01:54:24;;;;;;;3.88;2.22;;;;;;;;;;5034486;28;20025;-43
2022/05/18 01:56:49;;;;;;;4.70;2.65;;;;;;;;;;5056027;28;20060;-43
2022/05/18 01:59:15;;;;;;;3.50;1.90;;;;;;;;;;5038405;28;20468;-43
2022/05/18 02:01:40;;;;;;;3.08;1.92;;;;;;;;;;5056352;28;20471;-40
2022/05/18 02:04:06;;;;;;;3.63;2.10;;;;;;;;;;5038319;28;20641;-42
2022/05/18 02:06:32;;;;;;;4.35;2.30;;;;;;;;;;5056381;28;20463;-42
2022/05/18 02:08:58;;;;;;;3.70;1.98;;;;;;;;;;5055945;28;20021;-43
2022/05/18 02:11:23;;;;;;;6.85;2.10;;;;;;;;;;5056162;28;20086;-43
2022/05/18 02:13:51;;;;;;;4.10;2.00;;;;;;;;;;5056149;28;20095;-43
2022/05/18 02:16:16;;;;;;;5.28;2.00;;;;;;;;;;5056137;28;20025;-43
2022/05/18 02:18:41;;;;;;;4.82;2.20;;;;;;;;;;5038079;28;20375;-43
2022/05/18 02:21:08;;;;;;;3.08;2.20;;;;;;;;;;5055976;28;20079;-42
2022/05/18 02:23:34;;;;;;;4.55;2.05;;;;;;;;;;5055718;28;20021;-43
2022/05/18 02:26:04;;;;;;;2.60;2.08;;;;;;;;;;5055980;28;20021;-43
2022/05/18 02:28:30;;;;;;;7.68;2.33;;;;;;;;;;5038368;28;20028;-42
2022/05/18 02:30:55;;;;;;;8.00;2.17;;;;;;;;;;5055707;28;20041;-43
2022/05/18 02:33:20;;;;;;;5.05;2.20;;;;;;;;;;5055754;28;20032;-42
2022/05/18 02:35:46;;;;;;;6.68;1.77;;;;;;;;;;5055620;28;20099;-43
2022/05/18 02:38:11;;;;;;;4.22;2.00;;;;;;;;;;5037572;28;20025;-43
2022/05/18 02:40:36;;;;;;;8.50;2.60;;;;;;;;;;5035737;28;20465;-44
2022/05/18 02:43:02;;;;;;;5.18;1.95;;;;;;;;;;5035667;28;20495;-43
2022/05/18 02:45:27;;;;;;;5.85;2.03;;;;;;;;;;5034247;28;20017;-40
2022/05/18 02:47:53;;;;;;;5.05;1.90;;;;;;;;;;5035562;28;20048;-42
2022/05/18 02:50:19;;;;;;;4.43;1.80;;;;;;;;;;5017638;28;20099;-42
2022/05/18 02:52:45;;;;;;;4.13;1.88;;;;;;;;;;5035190;28;20500;-43
2022/05/18 02:57:54;;;;;;;3.42;1.75;;;;;;;;;;5035299;28;20044;-42
2022/05/18 03:00:20;;;;;;;3.35;1.85;;;;;;;;;;5033965;28;20025;-43
2022/05/18 03:02:45;;;;;;;4.93;2.00;;;;;;;;;;5035205;28;20017;-42
2022/05/18 03:05:10;;;;;;;3.22;2.10;;;;;;;;;;5034803;28;20422;-45
2022/05/18 03:07:36;;;;;;;4.82;1.80;;;;;;;;;;5034430;28;20018;-43
2022/05/18 03:10:02;;;;;;;8.75;2.25;;;;;;;;;;5035116;28;20017;-41
2022/05/18 03:12:27;;;;;;;4.55;1.90;;;;;;;;;;5034859;28;20472;-43
2022/05/18 03:14:53;;;;;;;4.05;1.85;;;;;;;;;;5035141;28;20020;-43
2022/05/18 03:17:18;;;;;;;6.10;1.75;;;;;;;;;;5035034;28;20018;-43
2022/05/18 03:19:43;;;;;;;4.90;2.08;;;;;;;;;;5033588;28;20028;-44
2022/05/18 03:24:53;;;;;;;11.88;2.05;;;;;;;;;;5034969;28;20087;-43
2022/05/18 03:27:18;;;;;;;3.83;1.88;;;;;;;;;;5033517;28;20017;-43
2022/05/18 03:29:44;;;;;;;4.05;1.95;;;;;;;;;;5034841;28;20048;-43
2022/05/18 03:32:09;;;;;;;3.97;2.00;;;;;;;;;;5016909;28;20452;-42
2022/05/18 03:34:35;;;;;;;5.68;2.05;;;;;;;;;;5034446;28;20112;-43
2022/05/18 03:37:00;;;;;;;7.35;1.55;;;;;;;;;;5036001;28;20026;-43
2022/05/18 03:39:26;;;;;;;4.97;1.60;;;;;;;;;;5054817;28;20369;-43
2022/05/18 03:41:52;;;;;;;4.20;1.70;;;;;;;;;;5054594;28;20021;-43
2022/05/18 03:44:19;;;;;;;3.08;1.70;;;;;;;;;;5054353;28;20444;-42
2022/05/18 03:46:44;;;;;;;7.30;2.50;;;;;;;;;;5054114;28;20049;-44
2022/05/18 03:49:10;;;;;;;6.53;1.60;;;;;;;;;;5054041;28;20027;-43
2022/05/18 03:51:37;;;;;;;6.45;1.70;;;;;;;;;;5054239;28;20071;-43
2022/05/18 03:54:04;;;;;;;4.63;1.98;;;;;;;;;;5054237;28;20422;-41
2022/05/18 03:56:29;;;;;;;2.47;1.42;;;;;;;;;;5036289;28;20021;-43
2022/05/18 03:58:55;;;;;;;4.10;1.50;;;;;;;;;;5054110;28;20519;-43
2022/05/18 04:01:21;;;;;;;2.78;1.30;;;;;;;;;;5054135;28;20021;-43
2022/05/18 04:03:47;;;;;;;2.63;1.33;;;;;;;;;;5053713;28;20029;-42
2022/05/18 04:06:13;;;;;;;4.53;1.38;;;;;;;;;;5053888;28;20502;-43
2022/05/18 04:08:39;;;;;;;4.05;1.60;;;;;;;;;;5053849;28;20043;-43
2022/05/18 04:11:05;;;;;;;6.82;1.50;;;;;;;;;;5053842;28;20468;-42
2022/05/18 04:13:32;;;;;;;2.92;1.35;;;;;;;;;;5053833;28;20179;-43
2022/05/18 04:15:59;;;;;;;2.50;1.30;;;;;;;;;;5036298;28;20052;-44
2022/05/18 04:18:24;;;;;;;10.43;1.58;;;;;;;;;;5052648;28;20383;-44
2022/05/18 04:20:51;;;;;;;2.55;1.20;;;;;;;;;;5053885;28;20433;-43
2022/05/18 04:23:16;;;;;;;1.98;1.20;;;;;;;;;;5053657;28;20025;-41
2022/05/18 04:25:42;;;;;;;1.83;1.20;;;;;;;;;;5053548;28;20427;-43
2022/05/18 04:28:08;;;;;;;3.35;1.27;;;;;;;;;;5053500;28;20059;-43
2022/05/18 04:30:34;;;;;;;3.65;1.50;;;;;;;;;;5053258;28;20060;-43
2022/05/18 04:33:00;;;;;;;7.65;1.50;;;;;;;;;;5053313;28;20067;-44
2022/05/18 04:35:27;;;;;;;3.97;1.38;;;;;;;;;;5053026;28;20025;-42
2022/05/18 04:37:52;;;;;;;6.55;1.83;;;;;;;;;;5053503;28;20017;-42
2022/05/18 04:40:18;;;;;;;5.57;1.33;;;;;;;;;;5035531;28;20017;-41
2022/05/18 04:42:43;;;;;;;3.13;1.50;;;;;;;;;;5053450;28;20100;-41
2022/05/18 04:45:10;;;;;;;5.65;1.70;;;;;;;;;;5035242;28;20029;-43
2022/05/18 04:47:35;;;;;;;5.10;1.63;;;;;;;;;;5053040;28;20021;-44
2022/05/18 04:50:01;;;;;;;3.00;1.60;;;;;;;;;;5053049;28;20036;-43
2022/05/18 04:52:26;;;;;;;10.43;1.40;;;;;;;;;;5035383;28;20063;-42
2022/05/18 04:54:52;;;;;;;6.68;1.73;;;;;;;;;;5035148;28;20021;-42
2022/05/18 04:57:17;;;;;;;3.88;1.35;;;;;;;;;;5052951;28;20027;-43
2022/05/18 04:59:43;;;;;;;6.20;1.35;;;;;;;;;;5053172;28;20056;-42
2022/05/18 05:02:09;;;;;;;5.38;1.30;;;;;;;;;;5052947;28;20439;-41
2022/05/18 05:04:35;;;;;;;2.78;1.35;;;;;;;;;;5052701;28;20029;-43
2022/05/18 05:07:00;;;;;;;8.93;2.05;;;;;;;;;;5053358;28;20082;-43
2022/05/18 05:09:26;;;;;;;2.67;1.52;;;;;;;;;;5053042;28;20506;-40
2022/05/18 05:11:52;;;;;;;3.45;1.30;;;;;;;;;;5052750;28;20037;-40
2022/05/18 05:14:18;;;;;;;4.03;1.30;;;;;;;;;;5052788;28;20146;-41
2022/05/18 05:16:43;;;;;;;3.25;1.48;;;;;;;;;;5052644;28;20066;-42
2022/05/18 05:19:08;;;;;;;4.72;1.48;;;;;;;;;;5052586;28;20082;-43
2022/05/18 05:21:35;;;;;;;4.03;1.20;;;;;;;;;;5035188;28;20020;-43
2022/05/18 05:24:02;;;;;;;3.63;1.38;;;;;;;;;;5052791;28;20025;-42
2022/05/18 05:26:27;;;;;;;2.85;1.40;;;;;;;;;;5034979;28;20021;-41
2022/05/18 05:28:52;;;;;;;5.28;1.00;;;;;;;;;;5053065;28;20021;-43
2022/05/18 05:31:18;;;;;;;5.28;1.52;;;;;;;;;;5036978;28;20036;-42
2022/05/18 05:33:43;;;;;;;3.00;1.50;;;;;;;;;;5054035;28;20601;-40
2022/05/18 05:36:09;;;;;;;8.30;1.33;;;;;;;;;;5052701;28;20020;-40
2022/05/18 05:38:34;;;;;;;6.95;1.30;;;;;;;;;;5037575;28;20029;-42
2022/05/18 05:41:01;;;;;;;10.13;1.30;;;;;;;;;;5033568;28;20403;-43
2022/05/18 05:43:27;;;;;;;5.88;1.80;;;;;;;;;;5056906;28;20104;-42
2022/05/18 05:45:57;;;;;;;7.80;1.75;;;;;;;;;;5044770;28;20017;-43
2022/05/18 05:48:23;;;;;;;4.47;1.20;;;;;;;;;;5052672;28;20020;-43
2022/05/18 05:50:48;;;;;;;7.28;1.42;;;;;;;;;;5045614;28;20037;-46
2022/05/18 05:53:14;;;;;;;6.72;1.20;;;;;;;;;;5039429;28;20035;-43
2022/05/18 05:55:39;;;;;;;6.50;1.23;;;;;;;;;;5052555;28;20415;-42
2022/05/18 05:58:04;;;;;;;3.63;1.10;;;;;;;;;;5049140;28;20066;-42
2022/05/18 06:00:30;;;;;;;3.60;1.30;;;;;;;;;;5057544;28;20047;-43
2022/05/18 06:02:55;;;;;;;2.65;1.30;;;;;;;;;;5034326;28;20463;-43
2022/05/18 06:05:20;;;;;;;7.35;1.73;;;;;;;;;;5027773;28;20042;-43
2022/05/18 06:07:46;;;;;;;8.07;1.50;;;;;;;;;;5035106;28;20384;-42
2022/05/18 06:10:12;;;;;;;3.88;1.17;;;;;;;;;;5020703;28;20024;-42
2022/05/18 06:12:38;;;;;;;7.43;1.17;;;;;;;;;;5035694;28;20107;-42
2022/05/18 06:15:04;;;;;;;5.60;1.20;;;;;;;;;;5036131;28;20068;-43
2022/05/18 06:17:29;;;;;;;9.95;1.27;;;;;;;;;;5035289;28;20543;-44
2022/05/18 06:19:55;;;;;;;3.17;1.10;;;;;;;;;;5038397;28;20103;-43
2022/05/18 06:22:20;;;;;;;4.45;1.15;;;;;;;;;;5029938;28;20045;-41
2022/05/18 06:24:49;;;;;;;4.95;1.77;;;;;;;;;;5032286;28;20052;-39
2022/05/18 06:27:15;;;;;;;17.10;3.50;;;;;;;;;;5032339;28;20030;-38
2022/05/18 06:29:40;;;;;;;4.43;1.27;;;;;;;;;;5020735;28;20028;-41
2022/05/18 06:32:06;;;;;;;25.38;2.92;;;;;;;;;;5030835;28;20069;-45
2022/05/18 06:34:31;;;;;;;6.55;1.05;;;;;;;;;;5029570;28;20021;-41
2022/05/18 06:36:57;;;;;;;11.35;1.17;;;;;;;;;;5033157;28;20033;-39
2022/05/18 06:39:22;;;;;;;7.50;1.50;;;;;;;;;;5023958;28;20035;-42
2022/05/18 06:41:48;;;;;;;8.00;1.10;;;;;;;;;;5029833;28;20029;-45
2022/05/18 06:44:13;;;;;;;5.97;1.40;;;;;;;;;;5023473;28;20388;-42
2022/05/18 06:46:39;;;;;;;10.85;1.50;;;;;;;;;;5028412;28;20144;-44
2022/05/18 06:49:05;;;;;;;5.68;1.30;;;;;;;;;;5027788;28;20029;-43
2022/05/18 06:51:33;;;;;;;7.85;0.93;;;;;;;;;;5018027;28;20124;-45
2022/05/18 06:53:58;;;;;;;8.60;1.00;;;;;;;;;;5031050;28;20468;-43
2022/05/18 06:56:25;;;;;;;3.47;1.30;;;;;;;;;;5031355;28;20032;-43
2022/05/18 06:58:51;;;;;;;2.60;1.17;;;;;;;;;;5034320;28;20045;-42
2022/05/18 07:01:17;;;;;;;2.65;0.90;;;;;;;;;;5034478;28;20538;-39
2022/05/18 07:03:44;;;;;;;8.00;1.50;;;;;;;;;;5034277;28;20029;-42
2022/05/18 07:06:10;;;;;;;14.60;1.30;;;;;;;;;;5044483;28;20087;-44
2022/05/18 07:08:35;;;;;;;9.10;1.20;;;;;;;;;;5051756;28;20543;-42
2022/05/18 07:11:01;;;;;;;6.97;1.20;;;;;;;;;;5047928;28;20126;-42
2022/05/18 07:13:26;;;;;;;4.90;1.25;;;;;;;;;;5043508;28;20059;-41
2022/05/18 07:15:52;;;;;;;3.10;0.80;;;;;;;;;;5052090;28;20074;-45
2022/05/18 07:18:17;;;;;;;7.45;1.08;;;;;;;;;;5052053;28;20029;-41
2022/05/18 07:20:42;;;;;;;3.88;1.20;;;;;;;;;;5052486;28;20464;-42
2022/05/18 07:23:08;;;;;;;7.57;1.27;;;;;;;;;;5051722;28;20027;-43
2022/05/18 07:25:33;;;;;;;2.95;1.08;;;;;;;;;;5051189;28;20021;-46
2022/05/18 07:28:00;;;;;;;6.80;1.25;;;;;;;;;;5052609;28;20025;-43
2022/05/18 07:30:26;;;;;;;8.57;1.13;;;;;;;;;;5044767;28;20032;-47
2022/05/18 07:32:51;;;;;;;7.32;1.30;;;;;;;;;;5050509;28;20037;-47
2022/05/18 07:35:16;;;;;;;10.25;1.63;;;;;;;;;;5051311;28;20070;-42
2022/05/18 07:37:42;;;;;;;8.30;1.42;;;;;;;;;;5033416;28;20384;-44
2022/05/18 07:40:08;;;;;;;11.35;1.17;;;;;;;;;;5041806;28;20070;-39
2022/05/18 07:42:33;;;;;;;11.35;1.70;;;;;;;;;;5051796;28;20460;-39
2022/05/18 07:44:59;;;;;;;4.28;1.27;;;;;;;;;;5052889;28;20044;-42
2022/05/18 07:47:31;;;;;;;3.72;1.25;;;;;;;;;;5035923;28;20033;-42
2022/05/18 07:49:57;;;;;;;11.70;1.42;;;;;;;;;;5035434;28;20017;-45
2022/05/18 07:52:22;;;;;;;9.07;2.45;;;;;;;;;;5035688;28;20456;-41
2022/05/18 07:54:47;;;;;;;6.97;1.50;;;;;;;;;;5051868;28;20012;-41
2022/05/18 07:57:13;;;;;;;5.50;1.23;;;;;;;;;;5033867;28;20064;-45
2022/05/18 07:59:38;;;;;;;12.77;1.80;;;;;;;;;;5050542;28;20052;-43
2022/05/18 08:02:04;;;;;;;8.32;1.10;;;;;;;;;;5040494;28;20075;-42
2022/05/18 08:04:29;;;;;;;9.48;1.10;;;;;;;;;;5031381;28;20445;-43
2022/05/18 08:06:55;;;;;;;8.48;1.23;;;;;;;;;;5032572;28;20155;-45
2022/05/18 08:09:22;;;;;;;2.92;1.13;;;;;;;;;;5050975;28;20029;-43
2022/05/18 08:17:17;;;;;;;3.72;1.15;;;;;;;;;;5051367;28;20035;-43
2022/05/18 08:19:42;;;;;;;6.15;1.20;;;;;;;;;;5036515;28;20016;-44
2022/05/18 08:22:08;;;;;;;6.53;1.17;;;;;;;;;;5053084;28;20096;-41
2022/05/18 08:24:36;;;;;;;3.75;0.60;;;;;;;;;;5034554;28;20459;-44
2022/05/18 08:27:02;;;;;;;14.43;0.98;;;;;;;;;;5034736;28;20103;-45
2022/05/18 08:29:27;;;;;;;5.80;1.05;;;;;;;;;;5049138;28;20104;-44
2022/05/18 08:31:52;;;;;;;7.38;1.20;;;;;;;;;;5047507;28;20041;-43
2022/05/18 08:34:19;;;;;;;9.02;1.15;;;;;;;;;;5048996;28;20021;-43
2022/05/18 08:36:45;;;;;;;4.65;1.20;;;;;;;;;;5050269;28;20025;-45
2022/05/18 08:39:10;;;;;;;14.82;1.60;;;;;;;;;;5031432;28;20031;-44
2022/05/18 08:41:46;;;;;;;11.88;1.02;;;;;;;;;;5036848;28;20052;-44
2022/05/18 08:44:19;;;;;;;4.63;1.42;;;;;;;;;;5036076;28;20025;-43
2022/05/18 08:46:49;;;;;;;3.88;1.15;;;;;;;;;;5054953;28;20091;-43
2022/05/18 08:49:20;;;;;;;3.63;2.28;;;;;;;;;;5055815;28;20029;-41
2022/05/18 08:51:47;;;;;;;3.95;1.13;;;;;;;;;;5052364;28;20064;-43
2022/05/18 08:54:22;;;;;;;7.18;1.38;;;;;;;;;;5052614;28;20494;-43
2022/05/18 08:56:49;;;;;;;3.55;1.10;;;;;;;;;;5034592;28;20050;-42
2022/05/18 08:59:20;;;;;;;3.47;0.82;;;;;;;;;;5052381;28;20017;-42
2022/05/18 09:01:49;;;;;;;4.25;0.95;;;;;;;;;;5034132;28;20487;-42
2022/05/18 09:04:15;;;;;;;7.78;1.25;;;;;;;;;;5051481;28;20025;-42
2022/05/18 09:06:49;;;;;;;5.00;1.15;;;;;;;;;;5052974;28;20057;-43
2022/05/18 09:12:05;;;;;;;5.25;0.95;;;;;;;;;;5055667;28;20051;-42
2022/05/18 09:14:37;;;;;;;6.38;0.88;;;;;;;;;;5051704;28;20452;-42
2022/05/18 09:17:06;;;;;;;3.67;1.08;;;;;;;;;;5051750;28;20024;-43
2022/05/18 09:19:37;;;;;;;5.50;1.50;;;;;;;;;;5051455;28;20031;-42
2022/05/18 09:22:18;;;;;;;3.03;1.00;;;;;;;;;;5037332;28;20028;-43
2022/05/18 09:25:11;;;;;;;2.75;1.25;;;;;;;;;;5041564;28;20502;-45
2022/05/18 09:27:46;;;;;;;7.13;0.90;;;;;;;;;;5033828;28;20356;-43
2022/05/18 09:30:20;;;;;;;5.65;0.95;;;;;;;;;;5051641;28;20375;-43
2022/05/18 09:32:58;;;;;;;1.25;0.63;;;;;;;;;;5049784;28;20039;-44
2022/05/18 09:35:35;;;;;;;3.08;1.95;;;;;;;;;;5045101;28;20029;-45
2022/05/18 09:38:06;;;;;;;4.40;1.10;;;;;;;;;;5034409;28;20021;-43
2022/05/18 09:40:38;;;;;;;14.93;1.65;;;;;;;;;;5051581;28;20028;-42
2022/05/18 09:43:08;;;;;;;3.72;0.93;;;;;;;;;;5051983;28;20021;-41
2022/05/18 09:45:37;;;;;;;4.22;1.17;;;;;;;;;;5049540;28;20037;-45
2022/05/18 09:48:08;;;;;;;6.80;1.10;;;;;;;;;;5033742;28;20025;-42
2022/05/18 09:50:35;;;;;;;3.05;0.98;;;;;;;;;;5051756;28;20035;-42
2022/05/18 09:53:01;;;;;;;4.65;1.25;;;;;;;;;;5051902;28;20025;-43
2022/05/18 09:55:27;;;;;;;4.43;0.90;;;;;;;;;;5051856;28;20033;-42
2022/05/18 09:57:52;;;;;;;3.88;0.93;;;;;;;;;;5046453;28;20115;-42
2022/05/18 10:00:22;;;;;;;6.45;1.02;;;;;;;;;;5048333;28;20104;-41
2022/05/18 10:08:20;;;;;;;2.13;1.00;;;;;;;;;;5051915;28;20443;-41
2022/05/18 10:10:46;;;;;;;3.92;0.90;;;;;;;;;;5033331;28;20024;-43
2022/05/18 10:13:16;;;;;;;2.95;0.82;;;;;;;;;;5051043;28;20017;-42
2022/05/18 10:15:46;;;;;;;2.97;0.77;;;;;;;;;;5045712;28;20032;-40
2022/05/18 10:18:17;;;;;;;4.47;1.00;;;;;;;;;;5048073;28;20024;-43
2022/05/18 10:20:58;;;;;;;5.85;0.98;;;;;;;;;;5054971;28;20104;-42
2022/05/18 10:23:26;;;;;;;2.13;0.90;;;;;;;;;;5037362;28;20103;-43
2022/05/18 10:25:52;;;;;;;2.60;0.70;;;;;;;;;;5036848;28;20032;-42
2022/05/18 10:28:22;;;;;;;5.82;1.00;;;;;;;;;;5035378;28;20029;-42
2022/05/18 10:30:58;;;;;;;3.80;0.95;;;;;;;;;;5036740;28;20112;-40
2022/05/18 10:33:31;;;;;;;3.08;1.10;;;;;;;;;;5055224;28;20054;-41
2022/05/18 10:36:00;;;;;;;7.15;0.85;;;;;;;;;;5049594;28;20498;-42
2022/05/18 10:38:30;;;;;;;8.05;1.42;;;;;;;;;;5055224;28;20025;-40
2022/05/18 10:41:06;;;;;;;8.48;1.08;;;;;;;;;;5054256;28;20047;-43
2022/05/18 10:43:33;;;;;;;2.47;0.90;;;;;;;;;;5054936;28;20100;-39
2022/05/18 10:46:09;;;;;;;6.53;1.30;;;;;;;;;;5053166;28;20071;-41
2022/05/18 10:48:34;;;;;;;2.78;0.90;;;;;;;;;;5034108;28;20419;-43
2022/05/18 10:51:11;;;;;;;6.35;1.08;;;;;;;;;;5053040;28;20097;-41
2022/05/18 10:53:43;;;;;;;22.67;3.08;;;;;;;;;;5053765;28;20029;-43
2022/05/18 10:56:10;;;;;;;3.08;1.08;;;;;;;;;;5052890;28;20040;-41
2022/05/18 10:58:40;;;;;;;2.00;0.82;;;;;;;;;;5052849;28;20021;-42
2022/05/18 11:01:22;;;;;;;10.93;1.23;;;;;;;;;;5033549;28;20021;-42
2022/05/18 11:04:02;;;;;;;0.90;0.65;;;;;;;;;;5058784;28;20020;-43
2022/05/18 11:06:29;;;;;;;4.35;0.85;;;;;;;;;;5043771;28;20060;-42
2022/05/18 11:09:00;;;;;;;1.95;1.08;;;;;;;;;;5054978;28;20029;-45
2022/05/18 11:11:44;;;;;;;7.88;1.33;;;;;;;;;;5052965;28;20175;-42
2022/05/18 11:14:20;;;;;;;3.03;0.50;;;;;;;;;;5052114;28;20036;-42
2022/05/18 11:17:10;;;;;;;2.65;0.68;;;;;;;;;;5052761;28;20060;-43
2022/05/18 11:19:53;;;;;;;1.70;0.75;;;;;;;;;;5036089;28;20483;-44
2022/05/18 11:22:26;;;;;;;4.32;0.55;;;;;;;;;;5048523;28;20535;-38
2022/05/18 11:25:07;;;;;;;4.47;0.60;;;;;;;;;;5052095;28;20025;-42
2022/05/18 11:27:41;;;;;;;4.00;0.95;;;;;;;;;;5035129;28;20056;-42
2022/05/18 11:30:17;;;;;;;5.25;0.82;;;;;;;;;;5052274;28;20033;-43
2022/05/18 11:32:51;;;;;;;1.65;0.52;;;;;;;;;;5032824;28;20091;-41
2022/05/18 11:35:37;;;;;;;6.13;0.95;;;;;;;;;;5034143;28;20033;-40
2022/05/18 11:38:21;;;;;;;5.50;0.95;;;;;;;;;;5032431;28;20052;-40
2022/05/18 11:40:46;;;;;;;4.15;0.80;;;;;;;;;;5033307;28;20028;-44
2022/05/18 11:43:30;;;;;;;2.77;0.70;;;;;;;;;;5050144;28;20016;-42
2022/05/18 11:46:05;;;;;;;4.68;0.77;;;;;;;;;;5051725;28;20261;-42
2022/05/18 11:48:36;;;;;;;2.40;0.73;;;;;;;;;;5035690;28;20025;-40
2022/05/18 11:51:07;;;;;;;3.38;0.50;;;;;;;;;;5034483;28;20392;-42
2022/05/18 11:53:48;;;;;;;6.60;0.70;;;;;;;;;;5035463;28;20029;-40
2022/05/18 11:56:13;;;;;;;1.13;0.50;;;;;;;;;;5035755;28;20025;-42
2022/05/18 11:58:49;;;;;;;4.60;0.70;;;;;;;;;;5034104;28;20361;-42
2022/05/18 12:01:19;;;;;;;6.20;0.80;;;;;;;;;;5049028;28;20036;-43
2022/05/18 12:04:17;;;;;;;0.85;0.50;;;;;;;;;;5050624;28;20025;-41
2022/05/18 12:06:42;;;;;;;3.03;0.80;;;;;;;;;;5035469;28;20111;-40
2022/05/18 12:09:19;;;;;;;2.55;0.45;;;;;;;;;;5050829;28;20060;-43
2022/05/18 12:11:54;;;;;;;7.63;0.45;;;;;;;;;;5050804;28;20041;-40
2022/05/18 12:14:19;;;;;;;3.80;0.80;;;;;;;;;;5033482;28;20029;-39
2022/05/18 12:16:54;;;;;;;2.15;0.70;;;;;;;;;;5050354;28;20036;-45
2022/05/18 12:19:21;;;;;;;2.15;0.82;;;;;;;;;;5049638;28;20017;-42
2022/05/18 12:21:55;;;;;;;2.90;0.77;;;;;;;;;;5050905;28;20029;-43
2022/05/18 12:24:21;;;;;;;2.65;0.80;;;;;;;;;;5032961;28;20596;-42
2022/05/18 12:26:47;;;;;;;2.88;0.73;;;;;;;;;;5052903;28;20562;-44
2022/05/18 12:29:18;;;;;;;6.22;0.60;;;;;;;;;;5034789;28;20116;-42
2022/05/18 12:31:44;;;;;;;2.45;0.65;;;;;;;;;;5055617;28;20048;-39
2022/05/18 12:34:12;;;;;;;10.98;0.80;;;;;;;;;;5049827;28;20456;-39
2022/05/18 12:36:43;;;;;;;7.15;0.75;;;;;;;;;;5051247;28;20048;-44
2022/05/18 12:39:35;;;;;;;2.63;0.40;;;;;;;;;;5033158;28;20146;-41
2022/05/18 12:42:01;;;;;;;2.95;0.40;;;;;;;;;;5001270;28;20033;-44
2022/05/18 12:44:27;;;;;;;0.70;0.50;;;;;;;;;;5032528;28;20115;-41
2022/05/18 12:46:54;;;;;;;7.00;0.80;;;;;;;;;;5049256;28;20025;-42
2022/05/18 12:49:49;;;;;;;5.35;0.60;;;;;;;;;;5047886;28;20100;-42
2022/05/18 12:52:31;;;;;;;4.25;0.70;;;;;;;;;;5036912;28;20053;-42
2022/05/18 12:55:05;;;;;;;3.42;0.65;;;;;;;;;;5051291;28;20039;-41
2022/05/18 12:57:42;;;;;;;1.50;0.65;;;;;;;;;;5048478;28;20021;-40
2022/05/18 13:00:08;;;;;;;4.75;1.20;;;;;;;;;;5051224;28;20087;-43
2022/05/18 13:02:52;;;;;;;3.47;1.15;;;;;;;;;;5052194;28;20025;-41
2022/05/18 13:05:23;;;;;;;4.35;1.30;;;;;;;;;;5051913;28;20123;-42
2022/05/18 13:07:48;;;;;;;7.65;1.33;;;;;;;;;;5034021;28;20051;-41
2022/05/18 13:10:18;;;;;;;2.42;0.85;;;;;;;;;;5051571;28;20023;-44
2022/05/18 13:12:48;;;;;;;3.67;1.00;;;;;;;;;;5051762;28;20037;-42
2022/05/18 13:15:33;;;;;;;7.18;1.00;;;;;;;;;;5050195;28;20099;-43
2022/05/18 13:18:04;;;;;;;8.20;0.90;;;;;;;;;;5026519;28;20120;-44
2022/05/18 13:20:29;;;;;;;28.92;2.47;;;;;;;;;;5046292;28;20031;-43
2022/05/18 13:23:08;;;;;;;10.05;0.90;;;;;;;;;;5051489;28;20021;-42
2022/05/18 13:25:36;;;;;;;27.53;3.43;;;;;;;;;;5044195;28;20029;-42
2022/05/18 13:28:04;;;;;;;29.35;3.13;;;;;;;;;;5044765;28;20016;-41
2022/05/18 13:30:32;;;;;;;25.48;3.42;;;;;;;;;;5049075;28;20104;-43
2022/05/18 13:32:58;;;;;;;171.35;14.07;;;;;;;;;;5050405;28;20036;-46
2022/05/18 13:35:27;;;;;;;19.23;3.15;;;;;;;;;;5049744;28;20094;-42
2022/05/18 13:38:03;;;;;;;29.50;2.72;;;;;;;;;;5050834;28;20372;-44
2022/05/18 13:40:29;;;;;;;34.90;2.33;;;;;;;;;;5050588;28;20036;-43
2022/05/18 13:42:56;;;;;;;14.23;0.75;;;;;;;;;;5049980;28;20029;-44
2022/05/18 13:45:21;;;;;;;5.22;1.55;;;;;;;;;;5031504;28;20112;-47
2022/05/18 13:47:47;;;;;;;8.82;1.40;;;;;;;;;;5032425;28;20112;-43
2022/05/18 13:50:31;;;;;;;3.80;0.93;;;;;;;;;;5043104;28;20103;-44
2022/05/18 13:52:58;;;;;;;5.57;0.95;;;;;;;;;;5049685;28;20453;-44
2022/05/18 13:55:25;;;;;;;8.05;1.30;;;;;;;;;;5053586;28;20491;-44
2022/05/18 13:58:07;;;;;;;7.00;1.00;;;;;;;;;;5054195;28;20025;-46
2022/05/18 14:00:37;;;;;;;6.97;0.90;;;;;;;;;;5035117;28;20068;-44
2022/05/18 14:03:03;;;;;;;5.63;0.90;;;;;;;;;;5026914;28;20025;-43
2022/05/18 14:05:30;;;;;;;11.40;2.03;;;;;;;;;;5030663;28;20095;-44
2022/05/18 14:07:55;;;;;;;5.50;0.70;;;;;;;;;;5031972;28;20570;-46
2022/05/18 14:10:22;;;;;;;2.38;0.90;;;;;;;;;;5030820;28;20101;-44
2022/05/18 14:12:48;;;;;;;2.70;0.85;;;;;;;;;;5033430;28;20059;-43
2022/05/18 14:15:15;;;;;;;8.82;0.80;;;;;;;;;;5032850;28;20409;-43
2022/05/18 14:17:40;;;;;;;4.30;0.60;;;;;;;;;;5035236;28;20029;-43
2022/05/18 14:20:08;;;;;;;2.60;0.60;;;;;;;;;;5034674;28;20407;-46
2022/05/18 14:22:34;;;;;;;4.10;0.80;;;;;;;;;;5039173;28;20035;-44
2022/05/18 14:25:00;;;;;;;1.58;0.63;;;;;;;;;;5030947;28;20036;-45
2022/05/18 14:27:37;;;;;;;2.05;0.63;;;;;;;;;;5036940;28;20460;-44
2022/05/18 14:30:07;;;;;;;3.60;0.82;;;;;;;;;;5055384;28;20096;-43
2022/05/18 14:32:47;;;;;;;4.75;0.80;;;;;;;;;;5049193;28;20037;-41
2022/05/18 14:35:13;;;;;;;0.70;0.43;;;;;;;;;;5031088;28;20025;-41
2022/05/18 14:37:45;;;;;;;4.78;0.80;;;;;;;;;;5030810;28;20033;-43
2022/05/18 14:40:12;;;;;;;3.00;0.60;;;;;;;;;;5033927;28;20464;-43
2022/05/18 14:42:47;;;;;;;4.88;0.43;;;;;;;;;;5030764;28;20232;-45
2022/05/18 14:45:21;;;;;;;4.93;0.75;;;;;;;;;;5034340;28;20017;-42
2022/05/18 14:47:48;;;;;;;1.95;0.55;;;;;;;;;;5033877;28;20460;-43
2022/05/18 14:50:13;;;;;;;1.75;0.65;;;;;;;;;;5032751;28;20032;-43
2022/05/18 14:52:44;;;;;;;7.18;0.60;;;;;;;;;;5032925;28;20030;-41
2022/05/18 14:55:14;;;;;;;5.07;0.80;;;;;;;;;;5031866;28;20021;-42
2022/05/18 14:57:40;;;;;;;3.20;0.80;;;;;;;;;;5032738;28;20028;-42
2022/05/18 15:00:11;;;;;;;0.88;0.50;;;;;;;;;;5033778;28;20023;-43
2022/05/18 15:02:40;;;;;;;1.98;0.77;;;;;;;;;;5033257;28;20032;-39
2022/05/18 15:05:08;;;;;;;4.05;0.90;;;;;;;;;;5037639;28;20514;-42
2022/05/18 15:07:36;;;;;;;3.20;0.52;;;;;;;;;;5055103;28;20040;-41